Sardis, Alabama
Current Conditions -  °F | °C
As of 7:35 AM on Thursday 30 Oct 2014 (Local Time) from KSEM Reporting Station
Haze Haze  
Wind Chill: 43°   Ceiling: Unl
Heat Index: 43°   Visibility: 2.5mi
Dew Point: 41°   Wind: 0mph
Humidity: 93%   Direction: NA
Pressure: 30.12"   Gusts: NA
Location:  32.29°N, 86.99°W
Report Text: KSEM 301235Z AUTO 00000KT 2 1/2SM BR CLR 06/05 A3012 RMK AO2 VIS 1V5
Loading
Personal Weather Stations






























Interactive Weather Map
Tropical Storm Tracking
New forecast layout! Learn more

10-Day Weather Forecast

Advertisements
Track Severe Weather on mobile